Time;durP1;ratioP1;P1;durP2;ratioP2;P2;SDS_P1;SDS_P2;PMS_P1;PMS_P2;Temp;Humidity;BMP_temperature;BMP_pressure;BME280_temperature;BME280_humidity;BME280_pressure;Samples;Min_cycle;Max_cycle;Signal;HPM_P1;HPM_P2
2021/03/29 00:00:14;;;;;;;0.60;0.60;;;;;;;8.47;46.90;98191.72;29990;208;6000;-58
2021/03/29 00:00:45;;;;;;;0.52;0.52;;;;;;;8.46;46.68;98195.47;29990;272;6004;-58
2021/03/29 00:01:16;;;;;;;0.60;0.60;;;;;;;8.45;46.79;98193.84;29990;298;6000;-57
2021/03/29 00:01:47;;;;;;;0.60;0.60;;;;;;;8.43;46.93;98195.97;29989;258;6004;-57
2021/03/29 00:02:19;;;;;;;0.60;0.60;;;;;;;8.39;47.04;98190.22;29990;205;6000;-57
2021/03/29 00:02:50;;;;;;;0.50;0.50;;;;;;;8.41;47.01;98195.41;29990;251;6004;-57
2021/03/29 00:03:21;;;;;;;0.60;0.60;;;;;;;8.37;46.71;98188.84;29990;214;6000;-57
2021/03/29 00:03:53;;;;;;;0.60;0.60;;;;;;;8.39;46.76;98195.63;29990;295;6004;-57
2021/03/29 00:04:24;;;;;;;0.52;0.52;;;;;;;8.39;47.27;98194.81;29991;245;6000;-57
2021/03/29 00:04:56;;;;;;;0.60;0.60;;;;;;;8.38;46.77;98187.78;29990;234;6005;-58
2021/03/29 00:05:30;;;;;;;0.55;0.55;;;;;;;8.37;47.04;98191.53;29990;209;6000;-55
2021/03/29 00:06:01;;;;;;;0.57;0.57;;;;;;;8.39;47.07;98200.22;29991;266;6005;-56
2021/03/29 00:06:33;;;;;;;0.50;0.50;;;;;;;8.36;46.79;98200.72;29991;239;6000;-57
2021/03/29 00:07:05;;;;;;;0.60;0.60;;;;;;;8.35;46.86;98193.66;29991;216;6005;-57
2021/03/29 00:07:38;;;;;;;0.57;0.57;;;;;;;8.38;47.21;98190.47;29990;251;6000;-57
2021/03/29 00:08:15;;;;;;;0.50;0.50;;;;;;;8.37;46.72;98191.53;29990;280;6004;-57
2021/03/29 00:08:46;;;;;;;0.60;0.60;;;;;;;8.37;46.73;98194.25;29991;215;6000;-56
2021/03/29 00:09:19;;;;;;;0.50;0.50;;;;;;;8.35;47.26;98189.09;29990;204;6004;-57
2021/03/29 00:09:51;;;;;;;0.60;0.60;;;;;;;8.31;47.13;98189.81;29990;241;6000;-57
2021/03/29 00:10:24;;;;;;;0.60;0.60;;;;;;;8.35;47.07;98193.66;29989;213;6004;-57
2021/03/29 00:10:57;;;;;;;0.50;0.50;;;;;;;8.35;47.07;98194.50;29991;280;6000;-57
2021/03/29 00:11:28;;;;;;;0.60;0.60;;;;;;;8.32;47.17;98188.72;29991;227;6004;-58
2021/03/29 00:12:02;;;;;;;0.50;0.50;;;;;;;8.34;47.30;98192.03;29991;206;6000;-57
2021/03/29 00:12:36;;;;;;;0.50;0.50;;;;;;;8.34;47.07;98197.44;29990;240;6005;-58
2021/03/29 00:13:08;;;;;;;0.60;0.60;;;;;;;8.34;47.11;98192.03;29991;202;6000;-57
2021/03/29 00:13:39;;;;;;;0.60;0.60;;;;;;;8.29;46.97;98184.66;29991;267;6005;-58
2021/03/29 00:14:13;;;;;;;0.60;0.60;;;;;;;8.27;47.46;98185.97;29991;243;6000;-58
2021/03/29 00:14:44;;;;;;;0.60;0.60;;;;;;;8.26;47.27;98190.56;29991;261;6005;-58
2021/03/29 00:15:18;;;;;;;0.60;0.60;;;;;;;8.24;47.50;98187.28;29989;205;6000;-57
2021/03/29 00:15:51;;;;;;;0.60;0.60;;;;;;;8.26;47.23;98195.97;29990;228;6000;-57
2021/03/29 00:16:23;;;;;;;0.60;0.60;;;;;;;8.25;47.22;98193.50;29989;269;6000;-56
2021/03/29 00:16:54;;;;;;;0.60;0.60;;;;;;;8.22;47.71;98194.00;29989;220;6004;-58
2021/03/29 00:17:25;;;;;;;0.60;0.60;;;;;;;8.17;48.00;98191.19;29990;214;6009;-57
2021/03/29 00:17:56;;;;;;;0.60;0.60;;;;;;;8.17;47.64;98196.59;29991;199;6004;-57
2021/03/29 00:18:27;;;;;;;0.60;0.60;;;;;;;8.19;47.91;98191.78;29990;214;6000;-58
2021/03/29 00:18:58;;;;;;;0.60;0.60;;;;;;;8.18;47.76;98198.25;29991;269;6004;-57
2021/03/29 00:19:31;;;;;;;0.55;0.55;;;;;;;8.18;48.19;98200.94;29991;218;6010;-57
2021/03/29 00:20:09;;;;;;;0.60;0.60;;;;;;;8.17;47.77;98197.44;29990;263;6005;-58
2021/03/29 00:20:44;;;;;;;0.50;0.50;;;;;;;8.18;47.77;98203.66;29990;218;6000;-56
2021/03/29 00:21:15;;;;;;;0.55;0.55;;;;;;;8.17;48.03;98204.72;29990;299;6005;-56
2021/03/29 00:21:46;;;;;;;0.60;0.60;;;;;;;8.16;47.92;98208.47;29991;312;6000;-57
2021/03/29 00:22:17;;;;;;;0.60;0.60;;;;;;;8.10;47.82;98185.13;29991;216;6005;-57
2021/03/29 00:22:48;;;;;;;0.60;0.60;;;;;;;8.14;47.84;98205.19;29990;246;6000;-57
2021/03/29 00:23:20;;;;;;;0.60;0.60;;;;;;;8.14;47.76;98202.50;29990;238;6004;-57
2021/03/29 00:23:51;;;;;;;0.60;0.60;;;;;;;8.12;47.79;98205.44;29990;291;6000;-57
2021/03/29 00:24:22;;;;;;;0.60;0.60;;;;;;;8.12;47.81;98207.34;29990;246;6004;-58
2021/03/29 00:24:53;;;;;;;0.60;0.60;;;;;;;8.13;47.84;98206.28;29990;280;6000;-58
2021/03/29 00:25:26;;;;;;;0.60;0.60;;;;;;;8.12;47.85;98199.22;29991;240;6004;-57
2021/03/29 00:25:57;;;;;;;0.60;0.60;;;;;;;8.10;48.07;98207.56;29990;248;6010;-57
2021/03/29 00:26:28;;;;;;;0.60;0.60;;;;;;;8.08;48.22;98205.13;29990;280;6004;-58
2021/03/29 00:26:59;;;;;;;0.60;0.60;;;;;;;8.10;48.04;98201.34;29990;215;6000;-57
2021/03/29 00:27:30;;;;;;;0.60;0.60;;;;;;;8.06;48.32;98201.84;29991;247;6005;-58
2021/03/29 00:28:03;;;;;;;0.60;0.60;;;;;;;8.06;48.19;98209.94;29991;209;6000;-57
2021/03/29 00:28:34;;;;;;;0.60;0.60;;;;;;;8.03;48.11;98207.72;29991;206;6005;-57
2021/03/29 00:29:08;;;;;;;0.60;0.60;;;;;;;7.98;48.79;98204.94;29990;236;6000;-58
2021/03/29 00:29:39;;;;;;;0.60;0.60;;;;;;;7.99;48.92;98206.56;29990;284;6005;-58
2021/03/29 00:30:18;;;;;;;0.60;0.60;;;;;;;7.99;48.46;98216.56;29990;219;6000;-58
2021/03/29 00:30:49;;;;;;;0.60;0.60;;;;;;;7.96;48.79;98212.50;29991;266;6004;-57
2021/03/29 00:31:20;;;;;;;0.60;0.60;;;;;;;7.92;48.48;98205.94;29990;228;6000;-58
2021/03/29 00:31:51;;;;;;;0.60;0.60;;;;;;;7.95;48.47;98210.84;29991;202;6004;-58
2021/03/29 00:32:23;;;;;;;0.60;0.60;;;;;;;7.92;48.66;98211.34;29990;202;6000;-58
2021/03/29 00:32:55;;;;;;;0.60;0.60;;;;;;;7.95;48.56;98218.97;29990;196;6004;-58
2021/03/29 00:33:28;;;;;;;0.60;0.60;;;;;;;7.95;48.53;98208.16;29991;219;6000;-57
2021/03/29 00:34:00;;;;;;;0.60;0.60;;;;;;;7.87;48.45;98197.72;29990;214;6004;-58
2021/03/29 00:34:31;;;;;;;0.60;0.60;;;;;;;7.90;48.79;98208.06;29991;210;6000;-59
2021/03/29 00:35:03;;;;;;;0.60;0.60;;;;;;;7.91;48.62;98215.09;29991;259;6004;-57
2021/03/29 00:35:38;;;;;;;0.50;0.50;;;;;;;7.89;48.73;98209.13;29991;204;6008;-58
2021/03/29 00:36:11;;;;;;;0.60;0.60;;;;;;;7.89;48.57;98211.81;29991;281;6000;-57
2021/03/29 00:36:43;;;;;;;0.60;0.60;;;;;;;7.92;48.56;98214.03;29990;221;6000;-58
2021/03/29 00:37:14;;;;;;;0.60;0.60;;;;;;;7.89;48.59;98203.72;29991;218;6005;-57
2021/03/29 00:37:50;;;;;;;0.60;0.60;;;;;;;7.92;48.24;98216.75;29991;206;6000;-57
2021/03/29 00:38:22;;;;;;;0.60;0.60;;;;;;;7.93;48.59;98218.37;29990;217;6004;-57
2021/03/29 00:38:55;;;;;;;0.60;0.60;;;;;;;7.94;48.28;98211.91;29990;267;6000;-58
2021/03/29 00:39:28;;;;;;;0.60;0.60;;;;;;;7.94;48.47;98203.81;29990;250;6004;-57
2021/03/29 00:39:59;;;;;;;0.60;0.60;;;;;;;7.93;48.39;98207.56;29991;227;6000;-57
2021/03/29 00:40:31;;;;;;;0.60;0.60;;;;;;;7.93;48.56;98207.56;29991;252;6008;-57
2021/03/29 00:41:11;;;;;;;0.60;0.60;;;;;;;7.93;48.62;98207.56;29991;217;6000;-57
2021/03/29 00:41:43;;;;;;;0.60;0.60;;;;;;;7.93;48.38;98212.97;29991;216;6004;-57
2021/03/29 00:42:16;;;;;;;0.60;0.60;;;;;;;7.90;48.14;98199.94;29990;209;6000;-57
2021/03/29 00:42:54;;;;;;;0.50;0.50;;;;;;;7.92;48.36;98208.63;29990;213;6005;-57
2021/03/29 00:43:28;;;;;;;0.60;0.60;;;;;;;7.93;48.32;98212.97;29991;252;6000;-57
2021/03/29 00:44:00;;;;;;;0.60;0.60;;;;;;;7.94;48.51;98209.22;29991;235;6005;-57
2021/03/29 00:44:32;;;;;;;0.60;0.60;;;;;;;7.94;48.57;98203.81;29990;204;6000;-57
2021/03/29 00:45:07;;;;;;;0.60;0.60;;;;;;;7.93;48.66;98212.97;29991;208;6004;-58
2021/03/29 00:45:40;;;;;;;0.60;0.60;;;;;;;7.91;48.54;98207.00;29991;230;6000;-58
2021/03/29 00:46:13;;;;;;;0.60;0.60;;;;;;;7.94;48.51;98217.31;29991;203;6004;-57
2021/03/29 00:46:45;;;;;;;0.60;0.60;;;;;;;7.94;48.73;98209.22;29990;247;6000;-57
2021/03/29 00:47:16;;;;;;;0.60;0.60;;;;;;;7.96;48.66;98217.91;29991;209;6004;-57
2021/03/29 00:47:47;;;;;;;0.60;0.60;;;;;;;7.96;48.92;98215.19;29990;239;6000;-57
2021/03/29 00:48:19;;;;;;;0.60;0.60;;;;;;;7.95;48.63;98210.84;29991;211;6004;-57
2021/03/29 00:48:52;;;;;;;0.50;0.50;;;;;;;7.97;49.09;98213.31;29991;209;6000;-58
2021/03/29 00:49:24;;;;;;;0.60;0.60;;;;;;;7.99;48.79;98211.16;29990;199;6000;-58
2021/03/29 00:49:55;;;;;;;0.60;0.60;;;;;;;7.99;48.43;98222.78;29991;246;6000;-57
2021/03/29 00:50:34;;;;;;;0.60;0.60;;;;;;;8.02;48.47;98218.78;29990;220;6005;-57
2021/03/29 00:51:14;;;;;;;0.50;0.50;;;;;;;8.00;48.40;98219.03;29990;204;6000;-58
2021/03/29 00:51:46;;;;;;;0.60;0.60;;;;;;;7.99;48.75;98220.09;29991;231;6005;-58
2021/03/29 00:52:18;;;;;;;0.60;0.60;;;;;;;7.94;49.03;98214.62;29990;197;6000;-57
2021/03/29 00:52:50;;;;;;;0.60;0.60;;;;;;;7.91;48.93;98209.69;29991;223;6004;-57
2021/03/29 00:53:22;;;;;;;0.60;0.60;;;;;;;7.94;48.78;98220.03;29991;202;6000;-57
2021/03/29 00:53:59;;;;;;;0.60;0.60;;;;;;;7.95;48.77;98223.53;29991;202;6004;-57
2021/03/29 00:54:30;;;;;;;0.60;0.60;;;;;;;7.95;48.76;98221.66;29990;199;6009;-57
2021/03/29 00:55:01;;;;;;;0.60;0.60;;;;;;;7.94;49.07;98220.03;29990;205;6004;-58
2021/03/29 00:55:32;;;;;;;0.60;0.60;;;;;;;7.94;48.98;98214.62;29991;231;6000;-57
2021/03/29 00:56:03;;;;;;;0.60;0.60;;;;;;;7.95;49.06;98218.16;29991;220;6004;-57
2021/03/29 00:56:36;;;;;;;0.60;0.60;;;;;;;7.94;48.78;98220.03;29990;282;6000;-58
2021/03/29 00:57:07;;;;;;;0.60;0.60;;;;;;;7.88;48.83;98210.19;29990;229;6005;-58
2021/03/29 00:57:39;;;;;;;0.60;0.60;;;;;;;7.95;48.70;98220.84;29990;263;6000;-58
2021/03/29 00:58:11;;;;;;;0.60;0.60;;;;;;;7.87;49.03;98213.94;29989;197;6005;-57
2021/03/29 00:58:45;;;;;;;0.60;0.60;;;;;;;7.93;48.79;98221.09;29991;213;6000;-57
2021/03/29 00:59:17;;;;;;;0.60;0.60;;;;;;;7.90;49.17;98224.28;29990;197;6005;-57
2021/03/29 00:59:49;;;;;;;0.60;0.60;;;;;;;7.90;49.02;98218.88;29990;282;6000;-57
2021/03/29 01:00:50;;;;;;;0.60;0.60;;;;;;;7.89;49.25;98221.81;29990;230;6004;-57
2021/03/29 01:01:35;;;;;;;0.70;0.70;;;;;;;7.88;49.18;98221.00;29991;218;6000;-57
2021/03/29 01:02:06;;;;;;;0.60;0.60;;;;;;;7.83;49.01;98212.78;29990;213;6004;-57
2021/03/29 01:02:37;;;;;;;0.60;0.60;;;;;;;7.86;49.05;98217.72;29990;235;6000;-57
2021/03/29 01:03:48;;;;;;;0.60;0.60;;;;;;;7.85;49.54;98220.66;29991;217;6004;-58
2021/03/29 01:04:21;;;;;;;0.60;0.60;;;;;;;7.81;49.40;98209.50;29990;252;6000;-58
2021/03/29 01:04:53;;;;;;;0.60;0.60;;;;;;;7.83;49.40;98218.19;29991;219;6005;-58
2021/03/29 01:05:23;;;;;;;0.60;0.60;;;;;;;7.84;49.50;98219.00;29991;227;6000;-57
2021/03/29 01:06:04;;;;;;;0.60;0.60;;;;;;;7.84;49.64;98210.91;29990;202;6005;-57
2021/03/29 01:06:42;;;;;;;0.60;0.60;;;;;;;7.82;49.46;98213.84;29991;206;6000;-57
2021/03/29 01:07:13;;;;;;;0.60;0.60;;;;;;;7.78;49.52;98207.28;29990;199;6004;-57
2021/03/29 01:07:53;;;;;;;0.60;0.60;;;;;;;7.78;49.38;98218.09;29990;225;6000;-57
2021/03/29 01:08:25;;;;;;;0.60;0.60;;;;;;;7.80;49.60;98215.97;29991;231;6004;-57
2021/03/29 01:09:00;;;;;;;0.60;0.60;;;;;;;7.81;49.49;98212.22;29991;214;6000;-58
2021/03/29 01:09:32;;;;;;;0.60;0.60;;;;;;;7.81;49.36;98214.91;29990;245;6004;-57
2021/03/29 01:10:05;;;;;;;0.60;0.60;;;;;;;7.79;49.36;98208.94;29991;242;6000;-58
2021/03/29 01:10:40;;;;;;;0.60;0.60;;;;;;;7.77;49.57;98212.94;29990;252;6010;-57
2021/03/29 01:11:16;;;;;;;0.60;0.60;;;;;;;7.79;49.26;98216.22;29991;198;6000;-57
2021/03/29 01:12:01;;;;;;;0.60;0.60;;;;;;;7.78;49.38;98215.41;29990;229;6004;-57
2021/03/29 01:12:31;;;;;;;;;;;;;;;7.77;49.32;98216.47;29997;982;6009;-58
2021/03/29 01:13:06;;;;;;;0.60;0.60;;;;;;;7.77;49.40;98219.16;29996;335;6000;-57
2021/03/29 01:13:44;;;;;;;0.60;0.60;;;;;;;7.75;49.47;98210.47;29991;297;6000;-58
2021/03/29 01:14:21;;;;;;;0.60;0.60;;;;;;;7.74;49.43;98220.47;29990;218;6000;-57
2021/03/29 01:14:52;;;;;;;0.60;0.60;;;;;;;7.73;49.41;98218.00;29991;228;6004;-59
2021/03/29 01:15:23;;;;;;;0.60;0.60;;;;;;;7.71;49.62;98215.53;29990;331;6000;-58
2021/03/29 01:15:58;;;;;;;0.60;0.60;;;;;;;7.71;49.66;98214.72;29990;200;6004;-57
2021/03/29 01:16:33;;;;;;;0.57;0.57;;;;;;;7.71;49.44;98220.13;29991;254;6000;-53
2021/03/29 01:17:19;;;;;;;0.60;0.60;;;;;;;7.71;49.34;98222.81;29991;212;6004;-57
2021/03/29 01:17:50;;;;;;;0.60;0.60;;;;;;;7.70;49.46;98218.47;29990;203;6000;-56
2021/03/29 01:18:23;;;;;;;0.60;0.60;;;;;;;7.71;49.27;98217.41;29991;256;6004;-57
2021/03/29 01:18:58;;;;;;;0.60;0.60;;;;;;;7.70;49.34;98213.91;29991;225;6000;-57
2021/03/29 01:20:18;;;;;;;0.60;0.60;;;;;;;7.71;49.29;98215.53;29990;218;6004;-57
2021/03/29 01:21:46;;;;;;;0.60;0.60;;;;;;;7.71;48.93;98214.72;29989;212;6005;-56
2021/03/29 01:22:22;;;;;;;0.60;0.60;;;;;;;7.73;48.93;98220.69;29990;318;6000;-57
2021/03/29 01:22:57;;;;;;;0.60;0.60;;;;;;;7.73;48.88;98218.00;29990;285;6004;-57
2021/03/29 01:23:30;;;;;;;0.60;0.60;;;;;;;7.73;48.98;98218.00;29991;200;6000;-57
2021/03/29 01:24:13;;;;;;;0.70;0.70;;;;;;;7.76;48.94;98219.41;29990;212;6004;-57
2021/03/29 01:25:02;;;;;;;0.60;0.60;;;;;;;7.74;48.87;98212.34;29991;205;6000;-57
2021/03/29 01:25:44;;;;;;;0.60;0.60;;;;;;;7.74;48.84;98214.25;29989;228;6004;-57
2021/03/29 01:26:33;;;;;;;0.60;0.60;;;;;;;7.77;48.67;98219.16;29990;225;6000;-57
2021/03/29 01:27:04;;;;;;;0.60;0.60;;;;;;;7.78;48.94;98215.41;29990;279;6004;-57
2021/03/29 01:27:46;;;;;;;0.60;0.60;;;;;;;7.80;48.82;98215.97;29990;218;6000;-57
2021/03/29 01:28:19;;;;;;;0.60;0.60;;;;;;;7.76;48.96;98209.41;29990;211;6005;-56
2021/03/29 01:28:51;;;;;;;0.60;0.60;;;;;;;7.80;48.90;98218.69;29991;232;6000;-57
2021/03/29 01:29:30;;;;;;;0.60;0.60;;;;;;;7.80;48.72;98215.97;29990;214;6005;-57
2021/03/29 01:30:05;;;;;;;0.50;0.50;;;;;;;7.79;48.59;98219.75;29991;229;6000;-57
2021/03/29 01:30:38;;;;;;;0.60;0.60;;;;;;;7.81;48.83;98219.50;29990;208;6004;-57
2021/03/29 01:31:10;;;;;;;0.60;0.60;;;;;;;7.81;48.51;98217.63;29990;365;6000;-57
2021/03/29 01:31:42;;;;;;;0.60;0.60;;;;;;;7.82;48.71;98218.44;29990;231;6004;-58
2021/03/29 01:32:13;;;;;;;0.60;0.60;;;;;;;7.77;48.86;98213.75;29990;235;6000;-58
2021/03/29 01:32:46;;;;;;;0.60;0.60;;;;;;;7.79;48.65;98217.03;29991;212;6004;-57
2021/03/29 01:33:19;;;;;;;0.60;0.60;;;;;;;7.78;48.85;98219.97;29991;248;6000;-57
2021/03/29 01:33:52;;;;;;;0.60;0.60;;;;;;;7.77;48.76;98221.88;29991;215;6004;-58
2021/03/29 01:34:23;;;;;;;0.60;0.60;;;;;;;7.73;48.82;98224.22;29991;280;6005;-57
2021/03/29 01:34:56;;;;;;;0.60;0.60;;;;;;;7.76;48.70;98222.91;29989;197;6005;-57
2021/03/29 01:35:39;;;;;;;0.60;0.60;;;;;;;7.76;48.52;98224.81;29990;203;6000;-57
2021/03/29 01:36:11;;;;;;;0.60;0.60;;;;;;;7.75;48.71;98221.28;29990;234;6005;-58
2021/03/29 01:36:45;;;;;;;0.52;0.52;;;;;;;7.74;48.87;98220.47;29989;203;6000;-58
2021/03/29 01:37:16;;;;;;;0.60;0.60;;;;;;;7.75;48.82;98223.97;29991;197;6004;-58
2021/03/29 01:37:49;;;;;;;0.60;0.60;;;;;;;7.74;48.82;98219.63;29989;202;6000;-57
2021/03/29 01:38:20;;;;;;;0.60;0.60;;;;;;;7.70;49.02;98219.31;29990;197;6004;-57
2021/03/29 01:38:53;;;;;;;0.60;0.60;;;;;;;7.73;49.12;98215.31;29990;208;6000;-57
2021/03/29 01:39:25;;;;;;;0.60;0.60;;;;;;;7.72;49.09;98227.16;29990;302;6004;-57
2021/03/29 01:39:57;;;;;;;0.60;0.60;;;;;;;7.73;48.98;98223.41;29990;225;6000;-57
2021/03/29 01:40:29;;;;;;;0.60;0.60;;;;;;;7.67;48.94;98221.66;29990;206;6004;-57
2021/03/29 01:41:00;;;;;;;0.60;0.60;;;;;;;7.72;49.24;98227.16;29990;201;6000;-58
2021/03/29 01:41:32;;;;;;;0.60;0.60;;;;;;;7.72;48.93;98228.00;29990;192;6004;-58
2021/03/29 01:42:06;;;;;;;0.50;0.50;;;;;;;7.68;49.10;98226.00;29989;218;6000;-57
2021/03/29 01:42:37;;;;;;;0.60;0.60;;;;;;;7.66;49.25;98220.84;29990;247;6005;-57
2021/03/29 01:43:11;;;;;;;0.60;0.60;;;;;;;7.71;49.34;98226.34;29990;233;6000;-58
2021/03/29 01:43:42;;;;;;;0.60;0.60;;;;;;;7.71;49.02;98231.75;29990;279;6008;-57
2021/03/29 01:44:13;;;;;;;0.60;0.60;;;;;;;7.70;49.21;98224.69;29991;196;6000;-57
2021/03/29 01:44:45;;;;;;;0.60;0.60;;;;;;;7.67;49.03;98213.56;29990;248;6004;-58
2021/03/29 01:45:18;;;;;;;0.60;0.60;;;;;;;7.71;49.15;98220.13;29991;202;6000;-58
2021/03/29 01:45:49;;;;;;;0.60;0.60;;;;;;;7.72;48.93;98229.88;29990;239;6004;-58
2021/03/29 01:46:22;;;;;;;0.60;0.60;;;;;;;7.70;48.86;98223.88;29990;248;6000;-57
2021/03/29 01:46:54;;;;;;;0.60;0.60;;;;;;;7.68;48.87;98226.81;29990;258;6004;-58
2021/03/29 01:47:25;;;;;;;0.60;0.60;;;;;;;7.67;48.64;98224.38;29991;211;6000;-57
2021/03/29 01:47:57;;;;;;;0.60;0.60;;;;;;;7.66;48.85;98222.72;29990;256;6004;-57
2021/03/29 01:48:28;;;;;;;0.60;0.60;;;;;;;7.67;48.66;98229.78;29990;247;6000;-57
2021/03/29 01:48:59;;;;;;;0.60;0.60;;;;;;;7.67;48.86;98224.38;29990;210;6005;-57
2021/03/29 01:49:33;;;;;;;0.60;0.60;;;;;;;7.66;48.76;98228.94;29990;234;6000;-57
2021/03/29 01:50:07;;;;;;;0.60;0.60;;;;;;;7.69;49.05;98225.75;29990;210;6005;-56
2021/03/29 01:50:41;;;;;;;0.60;0.60;;;;;;;7.70;48.85;98219.31;29991;229;6000;-58
2021/03/29 01:51:15;;;;;;;0.60;0.60;;;;;;;7.71;48.73;98225.53;29990;209;6005;-57
2021/03/29 01:51:46;;;;;;;0.50;0.50;;;;;;;7.70;48.71;98219.31;29991;235;6000;-59
2021/03/29 01:52:17;;;;;;;0.60;0.60;;;;;;;7.67;48.64;98216.25;29990;224;6004;-57
2021/03/29 01:52:48;;;;;;;0.60;0.60;;;;;;;7.70;48.96;98219.31;29991;225;6000;-57
2021/03/29 01:53:22;;;;;;;0.60;0.60;;;;;;;7.68;48.78;98226.00;29990;227;6004;-56
2021/03/29 01:53:54;;;;;;;0.60;0.60;;;;;;;7.65;48.65;98215.69;29990;202;6000;-57
2021/03/29 01:54:26;;;;;;;0.60;0.60;;;;;;;7.66;48.96;98217.31;29991;264;6004;-57
2021/03/29 01:54:57;;;;;;;0.60;0.60;;;;;;;7.63;48.99;98223.19;29990;203;6000;-58
2021/03/29 01:55:30;;;;;;;0.50;0.50;;;;;;;7.66;49.05;98223.53;29991;222;6004;-58
2021/03/29 01:56:02;;;;;;;0.60;0.60;;;;;;;7.67;49.15;98218.97;29991;223;6000;-57
2021/03/29 01:56:32;;;;;;;0.60;0.60;;;;;;;7.67;49.21;98224.38;29990;207;6005;-57
2021/03/29 01:57:13;;;;;;;0.60;0.60;;;;;;;7.68;49.05;98226.81;29991;238;6000;-57
2021/03/29 01:57:45;;;;;;;0.60;0.60;;;;;;;7.67;49.05;98221.66;29990;224;6000;-58
2021/03/29 01:58:17;;;;;;;0.60;0.60;;;;;;;7.69;48.99;98224.94;29991;216;6000;-57
2021/03/29 01:58:48;;;;;;;0.60;0.60;;;;;;;7.71;49.14;98220.13;29990;274;6005;-57
2021/03/29 01:59:21;;;;;;;0.60;0.60;;;;;;;7.72;48.94;98225.28;29990;229;6000;-57
2021/03/29 01:59:52;;;;;;;0.60;0.60;;;;;;;7.72;49.00;98224.47;29991;211;6004;-58
2021/03/29 02:00:33;;;;;;;0.60;0.60;;;;;;;7.72;48.91;98228.00;29990;228;6000;-57
2021/03/29 02:01:09;;;;;;;0.60;0.60;;;;;;;7.65;49.28;98213.81;29991;240;6004;-58
2021/03/29 02:01:39;;;;;;;0.60;0.60;;;;;;;7.73;49.23;98228.81;29991;252;6000;-57
2021/03/29 02:02:11;;;;;;;0.60;0.60;;;;;;;7.72;49.22;98221.75;29990;226;6013;-57
2021/03/29 02:02:43;;;;;;;0.60;0.60;;;;;;;7.69;49.47;98227.66;29990;232;6000;-57
2021/03/29 02:03:18;;;;;;;0.50;0.50;;;;;;;7.71;49.27;98226.34;29991;292;6004;-58
2021/03/29 02:03:53;;;;;;;0.60;0.60;;;;;;;7.70;49.21;98229.28;29990;236;6000;-57
2021/03/29 02:04:27;;;;;;;0.60;0.60;;;;;;;7.71;49.52;98228.22;29991;197;6005;-57
2021/03/29 02:04:58;;;;;;;0.60;0.60;;;;;;;7.67;49.11;98213.56;29991;328;6000;-58
2021/03/29 02:05:29;;;;;;;0.60;0.60;;;;;;;7.69;49.41;98227.66;29990;228;6005;-57
2021/03/29 02:06:01;;;;;;;0.60;0.60;;;;;;;7.70;49.30;98229.28;29990;209;6007;-57
2021/03/29 02:06:33;;;;;;;0.55;0.55;;;;;;;7.69;49.39;98224.94;29990;258;6007;-57
2021/03/29 02:07:06;;;;;;;0.60;0.60;;;;;;;7.64;49.21;98219.44;29990;233;6000;-57
2021/03/29 02:07:37;;;;;;;0.60;0.60;;;;;;;7.69;49.34;98222.25;29991;233;6004;-58
2021/03/29 02:08:09;;;;;;;0.57;0.57;;;;;;;7.67;49.21;98224.38;29991;233;6000;-57
2021/03/29 02:08:41;;;;;;;0.50;0.50;;;;;;;7.67;49.25;98218.97;29991;215;6004;-58
2021/03/29 02:09:12;;;;;;;0.60;0.60;;;;;;;7.66;49.41;98218.13;29990;250;6000;-57
2021/03/29 02:09:44;;;;;;;0.60;0.60;;;;;;;7.65;49.20;98219.19;29991;219;6018;-57
2021/03/29 02:10:22;;;;;;;0.55;0.55;;;;;;;7.64;49.55;98225.66;29990;221;6000;-57
2021/03/29 02:10:54;;;;;;;0.60;0.60;;;;;;;7.63;49.67;98228.59;29989;202;6004;-57
2021/03/29 02:11:27;;;;;;;0.60;0.60;;;;;;;7.62;49.52;98219.69;29990;277;6000;-57
2021/03/29 02:11:58;;;;;;;0.50;0.50;;;;;;;7.61;50.08;98225.34;29991;203;6005;-58
2021/03/29 02:12:30;;;;;;;0.60;0.60;;;;;;;7.61;50.03;98230.75;29989;197;6000;-58
2021/03/29 02:13:13;;;;;;;0.50;0.50;;;;;;;7.60;49.95;98226.41;29990;243;6005;-58
2021/03/29 02:13:47;;;;;;;0.60;0.60;;;;;;;7.55;50.01;98215.50;29990;251;6000;-58
2021/03/29 02:14:20;;;;;;;0.60;0.60;;;;;;;7.58;50.00;98226.66;29991;219;6004;-58
2021/03/29 02:14:51;;;;;;;0.60;0.60;;;;;;;7.54;50.13;98216.56;29991;206;6000;-56
2021/03/29 02:15:25;;;;;;;0.60;0.60;;;;;;;7.56;50.12;98222.56;29991;204;6004;-58
2021/03/29 02:16:00;;;;;;;0.60;0.60;;;;;;;7.53;50.02;98220.34;29991;237;6000;-57
2021/03/29 02:16:32;;;;;;;0.60;0.60;;;;;;;7.51;50.25;98222.44;29990;213;6008;-57
2021/03/29 02:17:07;;;;;;;0.60;0.60;;;;;;;7.49;50.00;98224.56;29991;352;6000;-58
2021/03/29 02:17:39;;;;;;;0.57;0.57;;;;;;;7.47;50.43;98224.81;29989;209;6004;-58
2021/03/29 02:18:21;;;;;;;0.50;0.50;;;;;;;7.40;50.31;98214.12;29990;204;6000;-57
2021/03/29 02:18:56;;;;;;;0.60;0.60;;;;;;;7.43;50.35;98220.94;29991;203;6004;-57
2021/03/29 02:19:29;;;;;;;0.50;0.50;;;;;;;7.45;50.17;98215.31;29990;209;6000;-57
2021/03/29 02:20:00;;;;;;;0.60;0.60;;;;;;;7.46;50.28;98216.94;29990;202;6005;-57
2021/03/29 02:20:33;;;;;;;0.60;0.60;;;;;;;7.46;50.51;98222.34;29990;209;6000;-58
2021/03/29 02:21:18;;;;;;;0.60;0.60;;;;;;;7.49;50.29;98221.88;29990;220;6005;-57
2021/03/29 02:21:50;;;;;;;0.60;0.60;;;;;;;7.49;50.41;98219.16;29990;203;6000;-57
2021/03/29 02:22:21;;;;;;;0.60;0.60;;;;;;;7.48;50.02;98222.94;29990;244;6016;-56
2021/03/29 02:22:54;;;;;;;0.60;0.60;;;;;;;7.44;50.30;98221.75;29990;385;6000;-57
2021/03/29 02:23:25;;;;;;;0.60;0.60;;;;;;;7.46;49.98;98225.87;29990;248;6004;-57
2021/03/29 02:23:57;;;;;;;0.60;0.60;;;;;;;7.47;49.91;98218.59;29990;224;6000;-57
2021/03/29 02:24:29;;;;;;;0.57;0.57;;;;;;;7.48;50.02;98220.22;29991;211;6004;-57
2021/03/29 02:25:00;;;;;;;0.60;0.60;;;;;;;7.49;49.69;98222.69;29990;273;6000;-57
2021/03/29 02:25:32;;;;;;;0.60;0.60;;;;;;;7.52;49.62;98224.09;29991;208;6004;-57
2021/03/29 02:26:05;;;;;;;0.60;0.60;;;;;;;7.52;49.89;98221.38;29991;203;6000;-57
2021/03/29 02:26:40;;;;;;;0.60;0.60;;;;;;;7.56;49.98;98223.38;29990;275;6004;-57
2021/03/29 02:27:11;;;;;;;0.57;0.57;;;;;;;7.57;49.68;98219.63;29990;329;6000;-57
2021/03/29 02:27:47;;;;;;;0.60;0.60;;;;;;;7.59;49.48;98213.97;29991;198;6005;-58
2021/03/29 02:28:19;;;;;;;0.60;0.60;;;;;;;7.60;49.39;98212.91;29990;216;6000;-57
2021/03/29 02:28:51;;;;;;;0.60;0.60;;;;;;;7.61;49.35;98220.78;29991;230;6005;-57
2021/03/29 02:29:28;;;;;;;0.60;0.60;;;;;;;7.60;49.17;98212.91;29991;233;6000;-58
2021/03/29 02:29:59;;;;;;;0.60;0.60;;;;;;;7.62;49.25;98218.91;29990;210;6004;-57
2021/03/29 02:30:40;;;;;;;0.60;0.60;;;;;;;7.65;49.12;98221.09;29990;315;6000;-58
2021/03/29 02:31:12;;;;;;;0.60;0.60;;;;;;;7.64;49.14;98219.44;29991;197;6004;-58
2021/03/29 02:31:43;;;;;;;0.60;0.60;;;;;;;7.61;49.10;98209.16;29991;222;6000;-57
2021/03/29 02:32:14;;;;;;;0.50;0.50;;;;;;;7.64;49.38;98214.84;29990;196;6004;-57
2021/03/29 02:32:46;;;;;;;0.60;0.60;;;;;;;7.65;49.06;98215.69;29990;198;6000;-57
2021/03/29 02:33:18;;;;;;;0.60;0.60;;;;;;;7.66;49.08;98217.31;29990;292;6004;-57
2021/03/29 02:33:50;;;;;;;0.60;0.60;;;;;;;7.65;49.09;98210.28;29990;242;6000;-58
2021/03/29 02:34:21;;;;;;;0.57;0.57;;;;;;;7.62;49.28;98214.28;29990;197;6005;-58
2021/03/29 02:34:53;;;;;;;0.60;0.60;;;;;;;7.60;49.50;98218.31;29990;225;6000;-57
2021/03/29 02:35:24;;;;;;;0.60;0.60;;;;;;;7.63;49.54;98220.50;29990;204;6005;-57
2021/03/29 02:35:56;;;;;;;0.60;0.60;;;;;;;7.62;49.43;98211.56;29990;240;6000;-57
2021/03/29 02:36:27;;;;;;;0.60;0.60;;;;;;;7.62;49.42;98210.78;29990;209;6005;-57
2021/03/29 02:37:01;;;;;;;0.60;0.60;;;;;;;7.62;49.21;98216.19;29990;223;6000;-57
2021/03/29 02:37:31;;;;;;;0.57;0.57;;;;;;;7.61;49.37;98220.78;29990;225;6004;-58
2021/03/29 02:38:05;;;;;;;0.60;0.60;;;;;;;7.59;49.34;98219.38;29990;200;6000;-58
2021/03/29 02:38:36;;;;;;;0.60;0.60;;;;;;;7.54;49.27;98211.16;29990;318;6004;-57
2021/03/29 02:39:07;;;;;;;0.60;0.60;;;;;;;7.55;49.39;98223.63;29991;247;6000;-57
2021/03/29 02:39:39;;;;;;;0.60;0.60;;;;;;;7.52;49.38;98224.09;29990;210;6004;-57
2021/03/29 02:40:11;;;;;;;0.60;0.60;;;;;;;7.50;49.33;98228.91;29990;203;6000;-57
2021/03/29 02:40:43;;;;;;;0.50;0.50;;;;;;;7.46;49.49;98228.56;29990;231;6004;-57
2021/03/29 02:41:14;;;;;;;0.60;0.60;;;;;;;7.46;49.72;98225.03;29991;201;6000;-57
2021/03/29 02:41:46;;;;;;;0.60;0.60;;;;;;;7.43;49.68;98228.22;29991;221;6005;-57
2021/03/29 02:42:17;;;;;;;0.60;0.60;;;;;;;7.39;49.63;98226.00;29990;281;6000;-57
2021/03/29 02:42:49;;;;;;;0.60;0.60;;;;;;;7.37;49.66;98225.41;29990;197;6005;-57
2021/03/29 02:43:21;;;;;;;0.60;0.60;;;;;;;7.36;49.53;98226.47;29990;197;6000;-57
2021/03/29 02:43:53;;;;;;;0.60;0.60;;;;;;;7.33;49.65;98224.25;29991;203;6000;-57
2021/03/29 02:44:24;;;;;;;0.60;0.60;;;;;;;7.32;49.80;98224.50;29990;269;6000;-57